Terminal Aerodrome Forecast
Issued by NWS Albany, NY

Home | Current Version | Previous Version | Text Only | Print | Product List | Glossary On
Versions: 1 2 3 4 5 6 7 8 9 10 11 12 13 14
000
FTUS41 KALY 290500
TAFGFL
TAF
KGFL 290525Z 2906/3006 23004KT P6SM BKN035
      TEMPO 2906/2909 SCT035
     FM291400 32008KT P6SM BKN040=

USA.gov is the U.S. government's official web portal to all federal, state and local government web resources and services.